Time;durP1;ratioP1;P1;durP2;ratioP2;P2;SDS_P1;SDS_P2;PMS_P1;PMS_P2;Temp;Humidity;BMP_temperature;BMP_pressure;BME280_temperature;BME280_humidity;BME280_pressure;Samples;Min_cycle;Max_cycle;Signal;HPM_P1;HPM_P2
2023/07/15 00:00:14;;;;;;;;;;;;;;;37.62;29.70;100232.75;5098785;28;19998;-52
2023/07/15 00:02:43;;;;;;;;;;;;;;;36.81;30.28;100223.34;5106418;28;20263;-54
2023/07/15 00:05:20;;;;;;;;;;;;;;;36.47;30.74;100225.50;5103011;28;19942;-50
2023/07/15 00:07:46;;;;;;;;;;;;;;;36.79;30.21;100222.13;5100009;28;19979;-55
2023/07/15 00:10:11;;;;;;;;;;;;;;;37.25;29.96;100221.50;5098105;28;19917;-52
2023/07/15 00:12:37;;;;;;;;;;;;;;;37.06;30.42;100224.63;5098210;28;19944;-52
2023/07/15 00:15:03;;;;;;;;;;;;;;;36.30;31.02;100225.78;5098511;28;19960;-54
2023/07/15 00:17:28;;;;;;;;;;;;;;;36.31;30.83;100221.81;5108295;28;19920;-51
2023/07/15 00:19:53;;;;;;;;;;;;;;;37.26;30.18;100225.88;5109035;28;19927;-49
2023/07/15 00:22:19;;;;;;;;;;;;;;;36.94;30.39;100211.81;5098269;28;19916;-50
2023/07/15 00:24:46;;;;;;;;;;;;;;;36.23;31.13;100211.06;5094777;28;19920;-51
2023/07/15 00:27:11;;;;;;;;;;;;;;;36.95;30.28;100213.41;5097903;28;19904;-52
2023/07/15 00:29:37;;;;;;;;;;;;;;;36.38;31.26;100229.44;5098186;28;19938;-49
2023/07/15 00:32:04;;;;;;;;;;;;;;;35.91;31.38;100217.13;5114142;28;19946;-52
2023/07/15 00:34:30;;;;;;;;;;;;;;;36.34;31.30;100231.41;5114841;28;19916;-52
2023/07/15 00:36:56;;;;;;;;;;;;;;;36.92;30.64;100225.34;5098042;28;19923;-50
2023/07/15 00:39:21;;;;;;;;;;;;;;;36.95;30.59;100228.16;5102023;28;19920;-51
2023/07/15 00:41:46;;;;;;;;;;;;;;;36.62;30.72;100235.56;5082278;28;19917;-49
2023/07/15 00:44:16;;;;;;;;;;;;;;;36.90;30.97;100234.09;5099167;28;19923;-54
2023/07/15 00:46:49;;;;;;;;;;;;;;;37.06;29.92;100231.00;5097815;28;19928;-54
2023/07/15 00:49:17;;;;;;;;;;;;;;;37.10;30.71;100236.56;5097760;28;19916;-54
2023/07/15 00:51:55;;;;;;;;;;;;;;;36.73;31.04;100239.22;5100946;28;19912;-53
2023/07/15 00:54:21;;;;;;;;;;;;;;;36.42;31.17;100240.59;5113459;28;19920;-52
2023/07/15 00:56:46;;;;;;;;;;;;;;;37.02;30.69;100239.34;5114051;28;19920;-50
2023/07/15 00:59:14;;;;;;;;;;;;;;;37.17;30.47;100234.63;5097449;28;19923;-55
2023/07/15 01:01:40;;;;;;;;;;;;;;;36.93;30.79;100236.13;5113350;28;19917;-55
2023/07/15 01:04:05;;;;;;;;;;;;;;;35.59;31.86;100233.16;5098280;28;19938;-53
2023/07/15 01:06:33;;;;;;;;;;;;;;;35.26;32.48;100237.53;5097398;28;19927;-52
2023/07/15 01:08:59;;;;;;;;;;;;;;;36.09;31.58;100237.59;5079873;28;19927;-54
2023/07/15 01:11:28;;;;;;;;;;;;;;;35.08;32.67;100242.13;5086331;28;19916;-55
2023/07/15 01:13:54;;;;;;;;;;;;;;;35.87;32.12;100242.13;5090431;28;19923;-53
2023/07/15 01:16:20;;;;;;;;;;;;;;;35.84;31.80;100238.16;5099974;28;19917;-54
2023/07/15 01:18:45;;;;;;;;;;;;;;;36.18;31.34;100240.03;5101686;28;19962;-52
2023/07/15 01:21:13;;;;;;;;;;;;;;;36.55;31.40;100246.66;5079453;28;20046;-55
2023/07/15 01:23:38;;;;;;;;;;;;;;;36.54;31.22;100239.50;5087571;28;19927;-53
2023/07/15 01:26:04;;;;;;;;;;;;;;;36.57;31.21;100244.28;5113347;28;19921;-52
2023/07/15 01:28:31;;;;;;;;;;;;;;;35.64;32.14;100234.00;5113248;28;19924;-55
2023/07/15 01:30:58;;;;;;;;;;;;;;;36.40;31.55;100240.97;5113118;28;19954;-49
2023/07/15 01:33:24;;;;;;;;;;;;;;;36.67;31.44;100232.41;5101481;28;19988;-49
2023/07/15 01:35:50;;;;;;;;;;;;;;;36.73;31.28;100239.22;5097078;28;19923;-50
2023/07/15 01:38:16;;;;;;;;;;;;;;;36.09;31.76;100236.78;5112801;28;19928;-49
2023/07/15 01:40:42;;;;;;;;;;;;;;;36.68;31.30;100244.34;5079488;28;19917;-52
2023/07/15 01:43:09;;;;;;;;;;;;;;;36.39;31.41;100256.06;5097986;28;19988;-50
2023/07/15 01:45:36;;;;;;;;;;;;;;;35.31;32.29;100267.78;5118036;28;19931;-49
2023/07/15 01:48:02;;;;;;;;;;;;;;;36.02;31.73;100257.78;5112259;28;19917;-53
2023/07/15 01:50:27;;;;;;;;;;;;;;;35.49;33.00;100258.81;5081995;28;19924;-50
2023/07/15 01:52:52;;;;;;;;;;;;;;;36.54;32.43;100254.19;5101273;28;19938;-49
2023/07/15 01:55:18;;;;;;;;;;;;;;;36.34;32.52;100256.44;5105932;28;19916;-53
2023/07/15 01:57:44;;;;;;;;;;;;;;;35.76;33.03;100250.41;5079050;28;19947;-51
2023/07/15 02:00:10;;;;;;;;;;;;;;;35.43;32.65;100260.34;5078982;28;19920;-53
2023/07/15 02:02:40;;;;;;;;;;;;;;;35.40;32.44;100264.69;5109970;28;19916;-55
2023/07/15 02:05:06;;;;;;;;;;;;;;;35.68;31.88;100265.41;5078845;28;19946;-52
2023/07/15 02:07:31;;;;;;;;;;;;;;;34.46;33.23;100263.44;5112417;28;19923;-52
2023/07/15 02:09:58;;;;;;;;;;;;;;;33.87;33.89;100255.34;5078929;28;19923;-52
2023/07/15 02:12:24;;;;;;;;;;;;;;;35.29;32.47;100264.59;5096221;28;19971;-52
2023/07/15 02:14:49;;;;;;;;;;;;;;;36.35;31.16;100263.59;5108264;28;19916;-54
2023/07/15 02:17:17;;;;;;;;;;;;;;;36.30;30.93;100269.53;5081629;28;19916;-56
2023/07/15 02:19:43;;;;;;;;;;;;;;;36.26;30.84;100266.72;5096131;28;19916;-55
2023/07/15 02:22:09;;;;;;;;;;;;;;;35.85;31.54;100273.13;5089261;28;19916;-54
2023/07/15 02:24:34;;;;;;;;;;;;;;;36.30;31.11;100269.53;5101826;28;19935;-53
2023/07/15 02:27:00;;;;;;;;;;;;;;;36.21;31.41;100271.84;5098920;28;19916;-52
2023/07/15 02:29:25;;;;;;;;;;;;;;;35.91;31.62;100276.38;5095945;28;20010;-55
2023/07/15 02:31:51;;;;;;;;;;;;;;;36.25;31.11;100273.47;5103474;28;19923;-51
2023/07/15 02:34:18;;;;;;;;;;;;;;;36.22;31.00;100281.81;5111766;28;19920;-53
2023/07/15 02:36:43;;;;;;;;;;;;;;;36.62;30.58;100284.91;5078239;28;19952;-54
2023/07/15 02:39:09;;;;;;;;;;;;;;;36.08;31.31;100291.63;5095753;28;19916;-54
2023/07/15 02:41:34;;;;;;;;;;;;;;;36.54;30.86;100284.81;5078296;28;19917;-51
2023/07/15 02:44:00;;;;;;;;;;;;;;;36.90;30.28;100286.22;5102195;28;19920;-52
2023/07/15 02:46:26;;;;;;;;;;;;;;;36.61;30.64;100281.28;5080897;28;19943;-50
2023/07/15 02:48:53;;;;;;;;;;;;;;;36.12;31.28;100280.53;5111949;28;19984;-48
2023/07/15 02:51:19;;;;;;;;;;;;;;;35.80;31.90;100276.25;5095289;28;19943;-50
2023/07/15 02:53:46;;;;;;;;;;;;;;;36.34;31.20;100275.16;5115335;28;19923;-52
2023/07/15 02:56:11;;;;;;;;;;;;;;;37.14;30.33;100268.84;5095446;28;19924;-53
2023/07/15 02:58:37;;;;;;;;;;;;;;;37.18;30.31;100277.22;5111768;28;19920;-50
2023/07/15 03:01:02;;;;;;;;;;;;;;;37.68;29.63;100284.94;5096908;28;19950;-52
2023/07/15 03:03:28;;;;;;;;;;;;;;;37.55;29.82;100278.94;5087818;28;19936;-52
2023/07/15 03:05:56;;;;;;;;;;;;;;;36.93;30.28;100280.69;5102558;28;19904;-52
2023/07/15 03:08:21;;;;;;;;;;;;;;;36.81;30.79;100278.22;5095378;28;19920;-49
2023/07/15 03:10:49;;;;;;;;;;;;;;;37.05;30.51;100278.75;5095178;28;19927;-53
2023/07/15 03:13:15;;;;;;;;;;;;;;;36.89;30.92;100279.84;5119648;28;19923;-51
2023/07/15 03:15:41;;;;;;;;;;;;;;;37.15;30.40;100284.38;5116016;28;19920;-56
2023/07/15 03:18:06;;;;;;;;;;;;;;;37.11;30.60;100277.19;5095461;28;19917;-52
2023/07/15 03:20:32;;;;;;;;;;;;;;;37.87;29.62;100272.63;5095021;28;19923;-53
2023/07/15 03:22:57;;;;;;;;;;;;;;;37.84;30.00;100270.63;5095004;28;19959;-53
2023/07/15 03:25:23;;;;;;;;;;;;;;;37.94;29.91;100271.03;5094651;28;19920;-55
2023/07/15 03:27:49;;;;;;;;;;;;;;;38.18;29.80;100265.84;5095380;28;19917;-55
2023/07/15 03:30:15;;;;;;;;;;;;;;;37.62;31.38;100269.00;5110918;28;20000;-55
2023/07/15 03:32:41;;;;;;;;;;;;;;;37.40;31.62;100277.31;5095065;28;19913;-56
2023/07/15 03:35:08;;;;;;;;;;;;;;;37.34;32.00;100270.50;5094932;28;19955;-53
2023/07/15 03:37:34;;;;;;;;;;;;;;;37.54;31.96;100271.78;5095253;28;19919;-52
2023/07/15 03:40:12;;;;;;;;;;;;;;;37.42;32.43;100272.91;5094428;28;19970;-50
2023/07/15 03:42:38;;;;;;;;;;;;;;;35.81;34.22;100265.91;5095226;28;19935;-53
2023/07/15 03:45:04;;;;;;;;;;;;;;;34.36;35.80;100262.09;5094876;28;19946;-52
2023/07/15 03:47:29;;;;;;;;;;;;;;;35.40;34.88;100275.03;5094921;28;19970;-54
2023/07/15 03:49:55;;;;;;;;;;;;;;;36.38;33.73;100270.41;5098983;28;19920;-49
2023/07/15 03:52:21;;;;;;;;;;;;;;;36.03;33.99;100269.75;5094753;28;19920;-53
2023/07/15 03:54:46;;;;;;;;;;;;;;;35.97;33.87;100271.22;5094833;28;19943;-53
2023/07/15 03:57:12;;;;;;;;;;;;;;;35.79;33.92;100265.50;5095460;28;19923;-53
2023/07/15 03:59:37;;;;;;;;;;;;;;;35.39;34.32;100270.66;5095047;28;19920;-54
2023/07/15 04:02:03;;;;;;;;;;;;;;;35.74;33.79;100272.22;5096000;28;19917;-52
2023/07/15 04:04:28;;;;;;;;;;;;;;;35.45;34.18;100271.91;5094561;28;19944;-53
2023/07/15 04:06:54;;;;;;;;;;;;;;;34.90;34.59;100262.09;5096453;28;19916;-55
2023/07/15 04:09:20;;;;;;;;;;;;;;;35.36;33.94;100274.19;5094555;28;19942;-50
2023/07/15 04:11:46;;;;;;;;;;;;;;;35.40;33.91;100275.81;5077392;28;19924;-52
2023/07/15 04:14:12;;;;;;;;;;;;;;;35.10;34.15;100281.44;5094348;28;19923;-50
2023/07/15 04:16:38;;;;;;;;;;;;;;;35.21;34.01;100274.00;5094796;28;19916;-55
2023/07/15 04:19:04;;;;;;;;;;;;;;;34.81;34.55;100275.44;5094635;28;19955;-52
2023/07/15 04:21:30;;;;;;;;;;;;;;;34.60;34.65;100272.00;5094506;28;19940;-49
2023/07/15 04:23:55;;;;;;;;;;;;;;;34.39;35.38;100274.44;5094398;28;19916;-50
2023/07/15 04:26:22;;;;;;;;;;;;;;;34.68;35.12;100277.66;5123253;28;19924;-52
2023/07/15 04:28:48;;;;;;;;;;;;;;;34.81;34.85;100273.47;5095980;28;19926;-50
2023/07/15 04:31:16;;;;;;;;;;;;;;;35.03;34.63;100280.13;5094510;28;19916;-52
2023/07/15 04:33:45;;;;;;;;;;;;;;;35.20;34.25;100280.75;5104732;28;19921;-53
2023/07/15 04:36:11;;;;;;;;;;;;;;;36.15;33.50;100279.78;5094395;28;19912;-54
2023/07/15 04:38:36;;;;;;;;;;;;;;;35.05;34.82;100285.34;5076711;28;19980;-49
2023/07/15 04:41:01;;;;;;;;;;;;;;;35.22;34.77;100281.16;5094354;28;19916;-54
2023/07/15 04:43:27;;;;;;;;;;;;;;;35.36;34.73;100285.31;5076294;28;20181;-52
2023/07/15 04:45:53;;;;;;;;;;;;;;;35.35;34.90;100292.03;5105620;28;19925;-53
2023/07/15 04:48:18;;;;;;;;;;;;;;;36.31;33.55;100298.97;5095002;28;19920;-53
2023/07/15 04:50:44;;;;;;;;;;;;;;;36.43;33.68;100307.00;5094932;28;19924;-53
2023/07/15 04:53:10;;;;;;;;;;;;;;;34.94;35.66;100301.81;5097631;28;19917;-55
2023/07/15 04:55:35;;;;;;;;;;;;;;;34.01;37.42;100308.28;5106281;28;19927;-53
2023/07/15 04:58:01;;;;;;;;;;;;;;;33.96;38.70;100291.19;5112033;28;19916;-56
2023/07/15 05:00:27;;;;;;;;;;;;;;;33.36;40.58;100297.91;5080206;28;20239;-49
2023/07/15 05:02:53;;;;;;;;;;;;;;;34.10;40.08;100302.50;5102465;28;19924;-53
2023/07/15 05:05:19;;;;;;;;;;;;;;;34.21;40.10;100293.56;5110413;28;19921;-56
2023/07/15 05:07:45;;;;;;;;;;;;;;;34.25;40.07;100289.66;5098702;28;19924;-57
2023/07/15 05:10:11;;;;;;;;;;;;;;;35.21;38.62;100287.91;5096892;28;19939;-51
2023/07/15 05:12:36;;;;;;;;;;;;;;;34.49;39.72;100284.94;5110033;28;19916;-53
2023/07/15 05:15:03;;;;;;;;;;;;;;;36.43;36.53;100298.66;5107777;28;19916;-55
2023/07/15 05:17:28;;;;;;;;;;;;;;;36.72;35.98;100289.72;5098380;28;19983;-49
2023/07/15 05:19:54;;;;;;;;;;;;;;;36.92;35.77;100298.59;5097406;28;19923;-49
2023/07/15 05:22:19;;;;;;;;;;;;;;;36.61;36.31;100298.00;5097074;28;19916;-50
2023/07/15 05:24:45;;;;;;;;;;;;;;;36.36;36.97;100295.81;5101261;28;19921;-55
2023/07/15 05:27:10;;;;;;;;;;;;;;;35.46;38.24;100304.06;5097073;28;19924;-51
2023/07/15 05:29:36;;;;;;;;;;;;;;;36.13;37.33;100305.19;5097968;28;19938;-49
2023/07/15 05:32:03;;;;;;;;;;;;;;;34.53;40.26;100308.00;5099397;28;19920;-50
2023/07/15 05:34:28;;;;;;;;;;;;;;;34.55;40.26;100307.59;5103353;28;19923;-51
2023/07/15 05:36:53;;;;;;;;;;;;;;;35.47;39.11;100308.44;5101636;28;19916;-48
2023/07/15 05:39:19;;;;;;;;;;;;;;;35.63;38.94;100307.47;5104772;28;19923;-50
2023/07/15 05:41:45;;;;;;;;;;;;;;;36.02;38.23;100305.09;5096958;28;19979;-50
2023/07/15 05:44:10;;;;;;;;;;;;;;;36.61;37.00;100305.56;5098328;28;19921;-51
2023/07/15 05:46:35;;;;;;;;;;;;;;;36.54;37.07;100304.31;5103531;28;19920;-53
2023/07/15 05:49:03;;;;;;;;;;;;;;;36.50;35.98;100311.81;5096617;28;19917;-55
2023/07/15 05:51:28;;;;;;;;;;;;;;;35.54;36.90;100314.13;5096583;28;19956;-53
2023/07/15 05:53:54;;;;;;;;;;;;;;;34.88;37.25;100308.88;5096484;28;19916;-52
2023/07/15 05:56:20;;;;;;;;;;;;;;;35.77;36.41;100310.41;5096440;28;19924;-52
2023/07/15 05:58:46;;;;;;;;;;;;;;;35.51;37.16;100326.00;5103814;28;19920;-54
2023/07/15 06:01:11;;;;;;;;;;;;;;;36.35;36.45;100318.50;5096006;28;19955;-53
2023/07/15 06:03:37;;;;;;;;;;;;;;;36.15;36.73;100324.28;5096234;28;19927;-54
2023/07/15 06:06:03;;;;;;;;;;;;;;;36.05;37.46;100323.00;5096662;28;19920;-55
2023/07/15 06:08:29;;;;;;;;;;;;;;;35.24;39.45;100323.25;5099470;28;19925;-49
2023/07/15 06:10:54;;;;;;;;;;;;;;;35.15;40.08;100319.97;5099108;28;20009;-55
2023/07/15 06:13:20;;;;;;;;;;;;;;;35.40;40.13;100319.50;5099764;28;19916;-51
2023/07/15 06:15:49;;;;;;;;;;;;;;;35.76;40.20;100325.50;5098432;28;19955;-54
2023/07/15 06:18:15;;;;;;;;;;;;;;;35.82;40.07;100318.41;5107411;28;19912;-55
2023/07/15 06:20:40;;;;;;;;;;;;;;;36.44;39.37;100319.72;5113489;28;19974;-52
2023/07/15 06:23:06;;;;;;;;;;;;;;;36.78;38.90;100329.16;5078784;28;19920;-50
2023/07/15 06:25:31;;;;;;;;;;;;;;;37.00;38.61;100322.53;5095827;28;19920;-55
2023/07/15 06:27:57;;;;;;;;;;;;;;;37.48;38.38;100329.09;5096112;28;19955;-52
2023/07/15 06:30:22;;;;;;;;;;;;;;;35.29;43.09;100325.72;5095767;28;19924;-51
2023/07/15 06:32:49;;;;;;;;;;;;;;;35.64;42.64;100329.34;5095813;28;19921;-54
2023/07/15 06:35:15;;;;;;;;;;;;;;;34.87;45.13;100321.19;5095634;28;19931;-54
2023/07/15 06:37:40;;;;;;;;;;;;;;;35.28;44.77;100324.09;5096052;28;19920;-52
2023/07/15 06:40:07;;;;;;;;;;;;;;;36.32;42.64;100325.63;5095580;28;19916;-51
2023/07/15 06:42:32;;;;;;;;;;;;;;;35.94;43.42;100324.84;5095956;28;19916;-52
2023/07/15 06:44:58;;;;;;;;;;;;;;;36.37;42.52;100318.91;5095385;28;19924;-53
2023/07/15 06:47:24;;;;;;;;;;;;;;;35.75;44.41;100323.88;5115420;28;19916;-56
2023/07/15 06:49:49;;;;;;;;;;;;;;;39.92;38.94;100335.16;5097338;28;19916;-51
2023/07/15 06:52:15;;;;;;;;;;;;;;;35.89;44.46;100317.66;5095397;28;19924;-56
2023/07/15 06:54:40;;;;;;;;;;;;;;;35.93;44.72;100321.28;5095319;28;19984;-56
2023/07/15 06:57:06;;;;;;;;;;;;;;;34.89;47.74;100327.16;5095433;28;19916;-55
2023/07/15 06:59:31;;;;;;;;;;;;;;;35.76;45.00;100324.69;5095242;28;19924;-54
2023/07/15 07:01:57;;;;;;;;;;;;;;;35.88;45.66;100325.19;5095377;28;20122;-56
2023/07/15 07:04:22;;;;;;;;;;;;;;;35.20;47.24;100333.53;5099070;28;19939;-54
2023/07/15 07:06:48;;;;;;;;;;;;;;;36.10;45.42;100322.66;5095360;28;19987;-57
2023/07/15 07:09:13;;;;;;;;;;;;;;;36.06;44.91;100324.59;5095069;28;19936;-56
2023/07/15 07:11:39;;;;;;;;;;;;;;;34.88;49.10;100323.56;5095249;28;19924;-55
2023/07/15 07:14:05;;;;;;;;;;;;;;;35.99;46.73;100324.53;5094412;28;19951;-54
2023/07/15 07:16:30;;;;;;;;;;;;;;;36.32;45.39;100322.84;5097583;28;19916;-55
2023/07/15 07:18:56;;;;;;;;;;;;;;;36.27;46.66;100323.97;5097530;28;19956;-53
2023/07/15 07:21:21;;;;;;;;;;;;;;;37.16;44.01;100307.50;5094887;28;19921;-54
2023/07/15 07:23:52;;;;;;;;;;;;;;;36.54;45.43;100318.25;5094770;28;19916;-52
2023/07/15 07:26:17;;;;;;;;;;;;;;;36.80;44.71;100332.34;5094765;28;20024;-55
2023/07/15 07:28:44;;;;;;;;;;;;;;;36.83;44.56;100326.00;5101104;28;19920;-55
2023/07/15 07:31:11;;;;;;;;;;;;;;;36.42;45.31;100332.47;5094944;28;19998;-53
2023/07/15 07:33:38;;;;;;;;;;;;;;;36.38;45.52;100342.78;5094968;28;19917;-53
2023/07/15 07:36:04;;;;;;;;;;;;;;;36.52;46.27;100334.53;5095194;28;19912;-55
2023/07/15 07:38:30;;;;;;;;;;;;;;;36.24;47.05;100354.59;5097641;28;19933;-53
2023/07/15 07:41:02;;;;;;;;;;;;;;;37.83;42.98;100343.56;5094819;28;19932;-54
2023/07/15 07:43:28;;;;;;;;;;;;;;;37.84;43.14;100357.13;5094833;28;19977;-48
2023/07/15 07:45:53;;;;;;;;;;;;;;;37.94;41.72;100357.53;5095005;28;19921;-48
2023/07/15 07:48:19;;;;;;;;;;;;;;;38.69;40.76;100351.19;5104068;28;19951;-51
2023/07/15 07:50:44;;;;;;;;;;;;;;;37.83;41.97;100357.50;5094892;28;19916;-56
2023/07/15 07:53:10;;;;;;;;;;;;;;;37.70;42.09;100365.44;5094455;28;19916;-52
2023/07/15 07:55:35;;;;;;;;;;;;;;;37.27;43.07;100349.34;5094995;28;19970;-52
2023/07/15 07:58:01;;;;;;;;;;;;;;;37.19;43.79;100350.47;5094661;28;19916;-51
2023/07/15 08:00:26;;;;;;;;;;;;;;;37.34;43.36;100356.91;5096199;28;19920;-54
2023/07/15 08:02:51;;;;;;;;;;;;;;;38.19;41.29;100379.09;5094592;28;19923;-53
2023/07/15 08:05:19;;;;;;;;;;;;;;;38.21;41.43;100365.53;5090140;28;19924;-55
2023/07/15 08:07:45;;;;;;;;;;;;;;;37.62;42.17;100355.47;5094636;28;19939;-56
2023/07/15 08:10:10;;;;;;;;;;;;;;;37.71;41.28;100353.09;5091313;28;19979;-54
2023/07/15 08:12:35;;;;;;;;;;;;;;;37.05;42.33;100345.63;5094428;28;19917;-56
2023/07/15 08:15:02;;;;;;;;;;;;;;;37.53;41.27;100337.09;5101867;28;19947;-58
2023/07/15 08:17:28;;;;;;;;;;;;;;;39.38;37.61;100350.22;5095918;28;19936;-54
2023/07/15 08:19:53;;;;;;;;;;;;;;;38.72;38.96;100353.16;5098725;28;19920;-51
2023/07/15 08:22:19;;;;;;;;;;;;;;;38.57;38.78;100351.63;5093879;28;19928;-52
2023/07/15 08:24:44;;;;;;;;;;;;;;;38.65;37.39;100355.19;5099003;28;19920;-55
2023/07/15 08:27:10;;;;;;;;;;;;;;;38.62;36.79;100365.16;5102052;28;19932;-53
2023/07/15 08:29:35;;;;;;;;;;;;;;;37.29;39.04;100370.03;5106488;28;19917;-54
2023/07/15 08:32:01;;;;;;;;;;;;;;;38.54;37.24;100371.97;5097444;28;19923;-56
2023/07/15 08:34:26;;;;;;;;;;;;;;;38.60;37.17;100361.97;5097718;28;19973;-55
2023/07/15 08:36:52;;;;;;;;;;;;;;;38.26;37.63;100367.94;5097933;28;19916;-52
2023/07/15 08:39:18;;;;;;;;;;;;;;;37.55;38.26;100362.59;5097541;28;19916;-54
2023/07/15 08:41:44;;;;;;;;;;;;;;;36.94;39.30;100345.53;5098570;28;19939;-52
2023/07/15 08:44:10;;;;;;;;;;;;;;;37.05;39.86;100359.56;5113233;28;19923;-53
2023/07/15 08:46:37;;;;;;;;;;;;;;;38.85;37.29;100366.72;5097884;28;19984;-52
2023/07/15 08:49:02;;;;;;;;;;;;;;;39.09;37.27;100375.47;5097757;28;19947;-52
2023/07/15 08:51:33;;;;;;;;;;;;;;;39.30;37.40;100371.78;5096220;28;19916;-52
2023/07/15 08:54:00;;;;;;;;;;;;;;;38.94;37.02;100383.88;5096538;28;19962;-50
2023/07/15 08:56:27;;;;;;;;;;;;;;;38.52;38.06;100371.53;5095011;28;19916;-55
2023/07/15 08:58:54;;;;;;;;;;;;;;;38.68;37.23;100374.72;5100356;28;19934;-51
2023/07/15 09:01:19;;;;;;;;;;;;;;;38.83;37.24;100380.31;5096454;28;19916;-51
2023/07/15 09:03:46;;;;;;;;;;;;;;;38.81;37.20;100399.47;5097540;28;19966;-53
2023/07/15 09:06:12;;;;;;;;;;;;;;;39.10;37.68;100399.44;5095229;28;19921;-52
2023/07/15 09:08:40;;;;;;;;;;;;;;;38.98;38.12;100393.06;5095670;28;19921;-53
2023/07/15 09:11:06;;;;;;;;;;;;;;;38.29;39.18;100409.81;5097290;28;19917;-51
2023/07/15 09:13:32;;;;;;;;;;;;;;;38.28;39.59;100401.84;5097386;28;19920;-52
2023/07/15 09:15:59;;;;;;;;;;;;;;;38.70;38.85;100402.28;5097271;28;19942;-51
2023/07/15 09:18:24;;;;;;;;;;;;;;;38.08;38.68;100396.66;5096520;28;19948;-50
2023/07/15 09:20:58;;;;;;;;;;;;;;;38.24;38.79;100412.19;5096818;28;19924;-48
2023/07/15 09:23:24;;;;;;;;;;;;;;;39.57;38.07;100405.66;5086131;28;19917;-49
2023/07/15 09:25:52;;;;;;;;;;;;;;;39.82;37.24;100415.97;5096724;28;19927;-51
2023/07/15 09:28:21;;;;;;;;;;;;;;;39.05;37.69;100417.41;5096423;28;19920;-51
2023/07/15 09:30:47;;;;;;;;;;;;;;;38.40;39.71;100414.59;5100399;28;19917;-50
2023/07/15 09:33:32;;;;;;;;;;;;;;;40.00;37.01;100420.66;5091443;28;19924;-51
2023/07/15 09:35:58;;;;;;;;;;;;;;;39.39;37.18;100402.97;5094501;28;19928;-52
2023/07/15 09:38:28;;;;;;;;;;;;;;;39.77;36.65;100419.16;5097363;28;19923;-54
2023/07/15 09:40:54;;;;;;;;;;;;;;;38.69;38.79;100437.78;5095265;28;19917;-48
2023/07/15 09:43:20;;;;;;;;;;;;;;;39.07;38.26;100415.00;5101064;28;19954;-51
2023/07/15 09:45:45;;;;;;;;;;;;;;;39.04;38.57;100415.03;5100954;28;19938;-51
2023/07/15 09:48:13;;;;;;;;;;;;;;;39.92;37.00;100414.31;5099596;28;19923;-56
2023/07/15 09:50:39;;;;;;;;;;;;;;;38.89;38.13;100412.22;5100586;28;19920;-55
2023/07/15 09:53:05;;;;;;;;;;;;;;;39.81;36.97;100419.16;5098017;28;19923;-55
2023/07/15 09:55:32;;;;;;;;;;;;;;;39.73;37.08;100424.78;5079445;28;19916;-54
2023/07/15 09:58:09;;;;;;;;;;;;;;;39.38;37.93;100428.53;5096172;28;19923;-51
2023/07/15 10:00:35;;;;;;;;;;;;;;;39.49;38.17;100420.91;5092904;28;19917;-54
2023/07/15 10:03:02;;;;;;;;;;;;;;;38.86;38.94;100441.75;5088472;28;19923;-50
2023/07/15 10:05:28;;;;;;;;;;;;;;;37.73;40.60;100428.81;5096393;28;20223;-49
2023/07/15 10:07:54;;;;;;;;;;;;;;;36.96;42.96;100416.41;5097531;28;19923;-55
2023/07/15 10:10:20;;;;;;;;;;;;;;;37.14;42.57;100422.13;5100685;28;19980;-51
2023/07/15 10:12:46;;;;;;;;;;;;;;;36.73;43.79;100442.53;5095365;28;19917;-52
2023/07/15 10:15:12;;;;;;;;;;;;;;;36.33;45.06;100446.91;5096089;28;19917;-49
2023/07/15 10:17:38;;;;;;;;;;;;;;;36.15;45.20;100455.06;5106828;28;19920;-51
2023/07/15 10:20:13;;;;;;;;;;;;;;;36.29;44.39;100446.06;5095788;28;19917;-52
2023/07/15 10:22:39;;;;;;;;;;;;;;;36.84;43.74;100425.06;5083570;28;20444;-53
2023/07/15 10:25:08;;;;;;;;;;;;;;;37.54;42.47;100414.00;5091128;28;19921;-54
2023/07/15 10:27:34;;;;;;;;;;;;;;;37.29;42.78;100411.06;5095259;28;19918;-50
2023/07/15 10:30:13;;;;;;;;;;;;;;;37.67;42.31;100420.00;5093835;28;19970;-54
2023/07/15 10:32:39;;;;;;;;;;;;;;;37.74;41.97;100408.09;5078597;28;19917;-55
2023/07/15 10:35:04;;;;;;;;;;;;;;;38.42;40.07;100413.03;5078340;28;19963;-50
2023/07/15 10:37:33;;;;;;;;;;;;;;;37.65;40.75;100413.25;5095258;28;19923;-51
2023/07/15 10:39:58;;;;;;;;;;;;;;;37.51;41.04;100405.63;5088960;28;19924;-51
2023/07/15 10:42:24;;;;;;;;;;;;;;;36.78;41.89;100382.06;5084938;28;20008;-50
2023/07/15 10:44:53;;;;;;;;;;;;;;;37.36;40.76;100376.84;5092569;28;19921;-54
2023/07/15 10:47:20;;;;;;;;;;;;;;;37.71;41.33;100380.97;5095986;28;19923;-53
2023/07/15 10:49:45;;;;;;;;;;;;;;;38.19;39.50;100381.91;5098411;28;19917;-52
2023/07/15 10:52:11;;;;;;;;;;;;;;;38.18;39.02;100394.25;5104100;28;19942;-52
2023/07/15 10:54:39;;;;;;;;;;;;;;;37.54;40.18;100377.72;5091045;28;19924;-49
2023/07/15 10:57:08;;;;;;;;;;;;;;;39.47;37.97;100395.34;5095615;28;19916;-53
2023/07/15 10:59:35;;;;;;;;;;;;;;;38.49;38.46;100389.91;5099028;28;19916;-55
2023/07/15 11:02:01;;;;;;;;;;;;;;;37.99;39.40;100377.50;5100665;28;19924;-53
2023/07/15 11:04:26;;;;;;;;;;;;;;;37.03;40.96;100379.47;5090996;28;19920;-55
2023/07/15 11:06:52;;;;;;;;;;;;;;;37.70;40.87;100384.97;5086479;28;19920;-56
2023/07/15 11:09:18;;;;;;;;;;;;;;;37.38;41.17;100378.03;5095447;28;19927;-50
2023/07/15 11:11:43;;;;;;;;;;;;;;;37.28;41.08;100413.03;5079810;28;19923;-51
2023/07/15 11:14:22;;;;;;;;;;;;;;;37.84;40.34;100407.34;5098688;28;19916;-51
2023/07/15 11:16:58;;;;;;;;;;;;;;;38.32;39.34;100413.81;5092047;28;19996;-54
2023/07/15 11:19:27;;;;;;;;;;;;;;;37.23;41.08;100418.19;5103392;28;20139;-53
2023/07/15 11:21:53;;;;;;;;;;;;;;;37.21;41.02;100401.06;5090084;28;19984;-54
2023/07/15 11:24:21;;;;;;;;;;;;;;;37.34;40.83;100396.75;5095660;28;19923;-53
2023/07/15 11:26:47;;;;;;;;;;;;;;;38.30;38.93;100386.28;5099613;28;19928;-56
2023/07/15 11:29:15;;;;;;;;;;;;;;;38.43;38.71;100394.28;5094832;28;19980;-56
2023/07/15 11:31:45;;;;;;;;;;;;;;;39.22;36.61;100399.00;5097307;28;19948;-56
2023/07/15 11:34:10;;;;;;;;;;;;;;;39.08;37.30;100399.03;5094905;28;19923;-54
2023/07/15 11:36:37;;;;;;;;;;;;;;;39.04;36.29;100410.22;5095858;28;19917;-53
2023/07/15 11:39:02;;;;;;;;;;;;;;;39.45;34.70;100400.56;5102593;28;19916;-54
2023/07/15 11:41:28;;;;;;;;;;;;;;;39.72;34.85;100430.78;5094490;28;19944;-55
2023/07/15 11:43:54;;;;;;;;;;;;;;;41.17;33.43;100389.66;5094652;28;19939;-55
2023/07/15 11:46:21;;;;;;;;;;;;;;;41.92;32.35;100403.94;5094579;28;19921;-54
2023/07/15 11:48:46;;;;;;;;;;;;;;;41.74;32.50;100396.56;5094704;28;19919;-53
2023/07/15 11:51:12;;;;;;;;;;;;;;;40.61;33.84;100399.81;5098717;28;19951;-55
2023/07/15 11:53:38;;;;;;;;;;;;;;;41.25;32.84;100377.94;5094651;28;19928;-54
2023/07/15 11:56:05;;;;;;;;;;;;;;;39.21;35.65;100379.81;5094873;28;19919;-56
2023/07/15 11:58:41;;;;;;;;;;;;;;;40.17;34.26;100373.38;5093530;28;19985;-53
2023/07/15 12:01:11;;;;;;;;;;;;;;;41.16;34.05;100380.47;5096146;28;19948;-54
2023/07/15 12:03:36;;;;;;;;;;;;;;;41.30;33.47;100362.69;5097265;28;19943;-51
2023/07/15 12:06:02;;;;;;;;;;;;;;;41.37;33.66;100359.78;5096833;28;19921;-54
2023/07/15 12:08:27;;;;;;;;;;;;;;;40.74;33.00;100383.31;5107810;28;20022;-54
2023/07/15 12:10:57;;;;;;;;;;;;;;;42.41;31.24;100351.00;5099677;28;19971;-54
2023/07/15 12:13:22;;;;;;;;;;;;;;;43.18;30.56;100356.03;5100706;28;19917;-54
2023/07/15 12:15:48;;;;;;;;;;;;;;;44.67;30.13;100353.34;5098585;28;19927;-52
2023/07/15 12:18:13;;;;;;;;;;;;;;;43.02;31.36;100351.13;5109526;28;19975;-55
2023/07/15 12:20:39;;;;;;;;;;;;;;;42.72;30.80;100363.38;5100578;28;19916;-55
2023/07/15 12:23:04;;;;;;;;;;;;;;;42.04;31.49;100350.06;5107137;28;19983;-55
2023/07/15 12:25:30;;;;;;;;;;;;;;;42.28;31.16;100367.69;5098415;28;19920;-53
2023/07/15 12:27:55;;;;;;;;;;;;;;;42.82;30.18;100368.78;5098394;28;19924;-51
2023/07/15 12:30:21;;;;;;;;;;;;;;;43.52;29.32;100362.59;5099641;28;19920;-55